Time;durP1;ratioP1;P1;durP2;ratioP2;P2;SDS_P1;SDS_P2;PMS_P1;PMS_P2;Temp;Humidity;BMP_temperature;BMP_pressure;BME280_temperature;BME280_humidity;BME280_pressure;Samples;Min_cycle;Max_cycle;Signal;HPM_P1;HPM_P2
2022/07/21 00:01:31;;;;;;;1.38;0.30;;;28.50;47.60;;;;;;5048618;28;20049;-59
2022/07/21 00:03:58;;;;;;;1.10;0.10;;;28.40;47.80;;;;;;5052384;28;20146;-58
2022/07/21 00:06:25;;;;;;;0.85;0.10;;;28.40;47.90;;;;;;5048999;28;20883;-58
2022/07/21 00:08:52;;;;;;;0.68;0.20;;;28.40;48.00;;;;;;5045524;28;20041;-57
2022/07/21 00:11:21;;;;;;;4.03;0.20;;;28.30;48.10;;;;;;5048570;28;20494;-58
2022/07/21 00:13:48;;;;;;;0.47;0.20;;;28.30;48.30;;;;;;5048337;28;20483;-57
2022/07/21 00:16:15;;;;;;;0.70;0.10;;;28.20;48.40;;;;;;5048304;28;20056;-57
2022/07/21 00:18:42;;;;;;;0.55;0.13;;;28.20;48.50;;;;;;5048506;28;20706;-57
2022/07/21 00:21:09;;;;;;;0.95;0.20;;;28.20;48.60;;;;;;5048643;28;20040;-58
2022/07/21 00:23:36;;;;;;;0.80;0.30;;;28.10;48.60;;;;;;5048424;28;20072;-58
2022/07/21 00:26:03;;;;;;;1.75;0.17;;;28.10;48.70;;;;;;5047873;28;20041;-58
2022/07/21 00:28:32;;;;;;;0.63;0.20;;;28.00;48.80;;;;;;5047811;28;20131;-59
2022/07/21 00:30:59;;;;;;;1.00;0.20;;;28.00;48.90;;;;;;5048397;28;20056;-58
2022/07/21 00:33:26;;;;;;;1.85;0.25;;;28.00;49.00;;;;;;5048140;28;20576;-58
2022/07/21 00:35:53;;;;;;;0.20;0.10;;;27.90;49.00;;;;;;5048141;28;20048;-58
2022/07/21 00:38:20;;;;;;;0.30;0.10;;;27.90;49.20;;;;;;5048058;28;20102;-58
2022/07/21 00:40:47;;;;;;;0.28;0.20;;;27.90;49.30;;;;;;5047275;28;20048;-58
2022/07/21 00:43:14;;;;;;;1.63;0.10;;;27.80;49.30;;;;;;5047691;28;20155;-58
2022/07/21 00:45:42;;;;;;;0.32;0.17;;;27.80;49.40;;;;;;5047914;28;20041;-58
2022/07/21 00:48:09;;;;;;;0.63;0.10;;;27.80;49.50;;;;;;5047642;28;20080;-58
2022/07/21 00:50:37;;;;;;;3.20;0.10;;;27.80;49.60;;;;;;5047656;28;20075;-59
2022/07/21 00:53:04;;;;;;;1.75;0.30;;;27.70;49.60;;;;;;5047626;28;20037;-58
2022/07/21 00:55:31;;;;;;;1.77;0.50;;;27.70;49.70;;;;;;5047537;28;20041;-62
2022/07/21 00:57:58;;;;;;;1.30;0.40;;;27.60;49.80;;;;;;5047648;28;20077;-58
2022/07/21 01:00:27;;;;;;;0.50;0.47;;;27.60;49.90;;;;;;5047466;28;20041;-59
2022/07/21 01:02:58;;;;;;;1.05;0.60;;;27.60;50.00;;;;;;5047114;28;20127;-58
2022/07/21 01:05:25;;;;;;;1.95;0.50;;;27.60;50.00;;;;;;5047299;28;20045;-58
2022/07/21 01:07:54;;;;;;;1.10;0.77;;;27.60;50.10;;;;;;5048149;28;20414;-58
2022/07/21 01:10:23;;;;;;;0.65;0.28;;;27.50;50.20;;;;;;5047311;28;20051;-58
2022/07/21 01:12:51;;;;;;;0.70;0.20;;;27.50;50.30;;;;;;5047401;28;20047;-59
2022/07/21 01:15:19;;;;;;;0.35;0.20;;;27.50;50.30;;;;;;5047060;28;20413;-59
2022/07/21 01:17:47;;;;;;;0.52;0.50;;;27.40;50.40;;;;;;5047144;28;20076;-59
2022/07/21 01:20:19;;;;;;;1.15;0.30;;;27.40;50.40;;;;;;5045825;28;20045;-58
2022/07/21 01:22:49;;;;;;;0.47;0.10;;;27.40;50.50;;;;;;5046950;28;20506;-58
2022/07/21 01:25:17;;;;;;;1.67;0.50;;;27.40;50.50;;;;;;5047125;28;20076;-58
2022/07/21 01:27:44;;;;;;;0.60;0.10;;;27.40;50.60;;;;;;5046777;28;20048;-56
2022/07/21 01:30:12;;;;;;;1.58;0.73;;;27.30;50.50;;;;;;5046856;28;20049;-58
2022/07/21 01:32:40;;;;;;;2.70;0.55;;;27.40;50.70;;;;;;5046942;28;20126;-59
2022/07/21 01:35:10;;;;;;;1.65;0.30;;;27.30;50.60;;;;;;5046851;28;20049;-58
2022/07/21 01:37:40;;;;;;;1.05;0.30;;;27.30;50.70;;;;;;5046734;28;20078;-59
2022/07/21 01:42:56;;;;;;;0.93;0.20;;;27.30;50.70;;;;;;5046923;28;20049;-59
2022/07/21 01:45:23;;;;;;;0.20;0.20;;;27.20;50.70;;;;;;5047037;28;20451;-59
2022/07/21 01:47:51;;;;;;;1.13;0.10;;;27.20;50.70;;;;;;5046717;28;20110;-59
2022/07/21 01:50:20;;;;;;;0.20;0.20;;;27.20;50.80;;;;;;5046719;28;20061;-59
2022/07/21 01:52:48;;;;;;;2.40;0.50;;;27.20;50.90;;;;;;5046493;28;20045;-59
2022/07/21 01:55:16;;;;;;;0.70;0.20;;;27.10;50.80;;;;;;5046810;28;20041;-59
2022/07/21 01:57:43;;;;;;;0.30;0.30;;;27.10;50.70;;;;;;5046732;28;20135;-59
2022/07/21 02:00:11;;;;;;;0.32;0.10;;;27.10;50.70;;;;;;5046711;28;20040;-59
2022/07/21 02:02:38;;;;;;;3.25;0.25;;;27.10;50.80;;;;;;5046772;28;20128;-59
2022/07/21 02:05:06;;;;;;;0.45;0.20;;;27.10;50.80;;;;;;5046802;28;20148;-58
2022/07/21 02:07:33;;;;;;;1.80;0.20;;;27.10;50.70;;;;;;5046579;28;20376;-58
2022/07/21 02:10:00;;;;;;;2.42;0.40;;;27.00;50.70;;;;;;5046580;28;20064;-58
2022/07/21 02:12:28;;;;;;;0.43;0.30;;;27.00;50.70;;;;;;5046842;28;20051;-58
2022/07/21 02:14:58;;;;;;;1.00;0.20;;;27.00;50.80;;;;;;5046476;28;20082;-58
2022/07/21 02:17:25;;;;;;;0.45;0.40;;;27.00;50.80;;;;;;5042196;28;20044;-57
2022/07/21 02:19:52;;;;;;;0.28;0.20;;;27.00;50.90;;;;;;5045924;28;20055;-57
2022/07/21 02:22:19;;;;;;;0.50;0.20;;;27.00;50.90;;;;;;5046399;28;20783;-58
2022/07/21 02:24:46;;;;;;;0.85;0.45;;;27.00;50.90;;;;;;5046586;28;20068;-56
2022/07/21 02:27:13;;;;;;;0.75;0.40;;;27.00;50.90;;;;;;5046482;28;20707;-57
2022/07/21 02:29:41;;;;;;;0.98;0.55;;;26.90;51.00;;;;;;5046557;28;20076;-53
2022/07/21 02:32:08;;;;;;;0.80;0.50;;;26.90;51.00;;;;;;5046363;28;20053;-56
2022/07/21 02:34:35;;;;;;;4.38;1.33;;;26.90;51.00;;;;;;5046785;28;20120;-57
2022/07/21 02:37:02;;;;;;;0.75;0.30;;;26.90;51.10;;;;;;5049073;28;20037;-58
2022/07/21 02:39:30;;;;;;;0.63;0.35;;;26.90;51.10;;;;;;5050319;28;20157;-57
2022/07/21 02:41:56;;;;;;;1.42;0.28;;;26.90;51.10;;;;;;5050132;28;20041;-58
2022/07/21 02:44:23;;;;;;;2.75;0.85;;;26.90;51.10;;;;;;5050169;28;20052;-58
2022/07/21 02:46:52;;;;;;;5.35;0.35;;;26.80;51.10;;;;;;5050175;28;20037;-58
2022/07/21 02:49:19;;;;;;;2.88;0.50;;;26.90;51.20;;;;;;5050018;28;20055;-56
2022/07/21 02:51:46;;;;;;;0.82;0.28;;;26.90;51.20;;;;;;5049678;28;20120;-57
2022/07/21 02:54:13;;;;;;;0.60;0.30;;;26.80;51.20;;;;;;5049771;28;20154;-57
2022/07/21 02:56:40;;;;;;;0.95;0.57;;;26.80;51.20;;;;;;5048284;28;20057;-56
2022/07/21 02:59:07;;;;;;;2.30;0.30;;;26.80;51.50;;;;;;5049784;28;20078;-56
2022/07/21 03:01:34;;;;;;;1.83;0.50;;;26.80;51.90;;;;;;5049838;28;20045;-58
2022/07/21 03:04:02;;;;;;;1.00;0.22;;;26.80;51.40;;;;;;5047629;28;20052;-57
2022/07/21 03:06:29;;;;;;;0.82;0.30;;;26.80;51.40;;;;;;5049708;28;20078;-58
2022/07/21 03:08:56;;;;;;;2.97;0.68;;;26.80;51.50;;;;;;5049770;28;20059;-56
2022/07/21 03:11:24;;;;;;;1.98;0.50;;;26.80;51.50;;;;;;5049595;28;20040;-54
2022/07/21 03:13:51;;;;;;;1.48;0.68;;;26.80;52.20;;;;;;5049777;28;20083;-52
2022/07/21 03:16:18;;;;;;;1.15;0.30;;;26.70;51.50;;;;;;5049589;28;20033;-57
2022/07/21 03:18:45;;;;;;;1.20;0.40;;;26.80;51.60;;;;;;5048919;28;20076;-58
2022/07/21 03:21:14;;;;;;;1.80;0.30;;;26.70;51.60;;;;;;5049322;28;20040;-58
2022/07/21 03:23:45;;;;;;;4.03;0.93;;;26.70;51.70;;;;;;5049574;28;20202;-58
2022/07/21 03:26:13;;;;;;;0.95;0.30;;;26.70;51.80;;;;;;5049359;28;20564;-58
2022/07/21 03:28:40;;;;;;;4.57;0.65;;;26.70;51.80;;;;;;5049312;28;20544;-58
2022/07/21 03:31:07;;;;;;;9.98;0.43;;;26.70;51.90;;;;;;5049507;28;20124;-59
2022/07/21 03:33:34;;;;;;;0.40;0.40;;;26.70;51.90;;;;;;5048776;28;20044;-60
2022/07/21 03:36:02;;;;;;;4.80;0.60;;;26.70;51.90;;;;;;5053990;28;20854;-59
2022/07/21 03:38:30;;;;;;;1.50;0.35;;;26.70;52.00;;;;;;5051293;28;20073;-59
2022/07/21 03:40:57;;;;;;;1.02;0.50;;;26.70;52.00;;;;;;5053349;28;20045;-60
2022/07/21 03:43:24;;;;;;;3.35;0.52;;;26.70;52.10;;;;;;5048965;28;20045;-59
2022/07/21 03:45:51;;;;;;;1.40;0.68;;;26.70;52.00;;;;;;5049352;28;20392;-59
2022/07/21 03:48:18;;;;;;;3.88;0.68;;;26.60;52.00;;;;;;5048640;28;20053;-59
2022/07/21 03:50:45;;;;;;;1.23;1.13;;;26.60;52.00;;;;;;5051889;28;20056;-60
2022/07/21 03:53:12;;;;;;;1.85;0.95;;;26.60;52.00;;;;;;5053222;28;20120;-59
2022/07/21 03:55:41;;;;;;;1.33;0.93;;;26.60;52.00;;;;;;5049375;28;20511;-60
2022/07/21 03:58:08;;;;;;;1.85;0.80;;;26.60;52.00;;;;;;5048997;28;20138;-58
2022/07/21 04:00:37;;;;;;;1.95;1.48;;;26.60;52.00;;;;;;5049270;28;20059;-59
2022/07/21 04:03:05;;;;;;;3.67;0.85;;;26.50;51.90;;;;;;5048705;28;20072;-58
2022/07/21 04:05:33;;;;;;;2.67;1.73;;;26.60;52.00;;;;;;5048614;28;20041;-58
2022/07/21 04:08:00;;;;;;;3.80;1.02;;;26.50;51.90;;;;;;5049115;28;20491;-59
2022/07/21 04:10:30;;;;;;;4.18;1.52;;;26.50;51.90;;;;;;5048567;28;20033;-58
2022/07/21 04:13:00;;;;;;;3.13;1.80;;;26.50;51.90;;;;;;5045715;28;20083;-57
2022/07/21 04:15:27;;;;;;;9.52;2.88;;;26.50;52.00;;;;;;5048574;28;20037;-58
2022/07/21 04:17:54;;;;;;;6.47;2.13;;;26.50;52.10;;;;;;5048311;28;20133;-63
2022/07/21 04:20:22;;;;;;;8.50;1.65;;;26.50;52.20;;;;;;5049666;28;20045;-63
2022/07/21 04:22:51;;;;;;;2.55;1.42;;;26.50;52.30;;;;;;5056455;28;20044;-52
2022/07/21 04:25:19;;;;;;;5.00;1.52;;;26.50;52.00;;;;;;5048592;28;20044;-46
2022/07/21 04:27:48;;;;;;;5.60;2.00;;;26.50;51.90;;;;;;5048290;28;20044;-52
2022/07/21 04:30:18;;;;;;;2.28;1.63;;;26.60;51.80;;;;;;5048383;28;20128;-58
2022/07/21 04:32:45;;;;;;;5.43;1.77;;;26.60;51.70;;;;;;5048186;28;20132;-58
2022/07/21 04:35:13;;;;;;;1.80;1.67;;;26.60;51.60;;;;;;5048320;28;20049;-59
2022/07/21 04:37:40;;;;;;;4.78;2.28;;;26.60;51.50;;;;;;5047762;28;20707;-59
2022/07/21 04:40:10;;;;;;;1.83;1.70;;;26.60;51.40;;;;;;5048514;28;20144;-59
2022/07/21 04:42:37;;;;;;;4.05;3.15;;;26.60;51.30;;;;;;5048273;28;20048;-59
2022/07/21 04:45:06;;;;;;;6.05;2.67;;;26.60;51.40;;;;;;5048346;28;20224;-57
2022/07/21 04:47:43;;;;;;;4.63;2.42;;;26.60;51.60;;;;;;5047939;28;20117;-59
2022/07/21 04:50:10;;;;;;;3.22;1.38;;;26.60;51.80;;;;;;5044852;28;20059;-56
2022/07/21 04:52:38;;;;;;;5.15;1.73;;;26.60;52.10;;;;;;5047558;28;20041;-55
2022/07/21 04:55:07;;;;;;;4.97;2.47;;;26.60;52.90;;;;;;5048305;28;20056;-54
2022/07/21 04:57:38;;;;;;;7.97;1.48;;;26.70;53.30;;;;;;5047808;28;20045;-53
2022/07/21 05:00:06;;;;;;;6.05;1.88;;;26.70;53.80;;;;;;5047123;28;20052;-54
2022/07/21 05:02:35;;;;;;;3.83;0.77;;;26.80;54.10;;;;;;5048435;28;20124;-56
2022/07/21 05:05:02;;;;;;;1.40;0.95;;;26.90;54.30;;;;;;5047783;28;20103;-56
2022/07/21 05:07:30;;;;;;;2.42;1.35;;;27.00;54.30;;;;;;5048018;28;20611;-55
2022/07/21 05:09:58;;;;;;;3.25;1.13;;;27.00;54.20;;;;;;5046236;28;20037;-56
2022/07/21 05:12:25;;;;;;;1.15;1.15;;;27.10;54.20;;;;;;5047685;28;20048;-55
2022/07/21 05:14:52;;;;;;;2.08;1.42;;;27.20;54.10;;;;;;5045355;28;20873;-57
2022/07/21 05:17:20;;;;;;;3.03;1.08;;;27.20;54.00;;;;;;5047336;28;20103;-56
2022/07/21 05:19:50;;;;;;;2.90;1.25;;;27.30;54.00;;;;;;5045626;28;20045;-56
2022/07/21 05:22:17;;;;;;;1.38;0.90;;;27.40;53.90;;;;;;5047890;28;20116;-56
2022/07/21 05:24:44;;;;;;;3.95;1.70;;;27.40;53.70;;;;;;5047461;28;20041;-54
2022/07/21 05:27:12;;;;;;;1.75;1.27;;;27.50;53.60;;;;;;5047500;28;20041;-56
2022/07/21 05:29:39;;;;;;;1.17;1.15;;;27.50;53.50;;;;;;5047198;28;20661;-58
2022/07/21 05:32:07;;;;;;;4.10;1.10;;;27.60;54.00;;;;;;5047548;28;20053;-57
2022/07/21 05:34:34;;;;;;;0.90;0.90;;;27.60;53.20;;;;;;5047254;28;20044;-58
2022/07/21 05:37:03;;;;;;;1.10;1.00;;;27.70;53.10;;;;;;5047145;28;20065;-56
2022/07/21 05:39:31;;;;;;;0.68;0.68;;;27.70;52.90;;;;;;5046236;28;20053;-57
2022/07/21 05:41:58;;;;;;;1.00;0.90;;;27.70;52.80;;;;;;5047122;28;20052;-57
2022/07/21 05:44:25;;;;;;;0.98;0.95;;;27.80;52.70;;;;;;5047031;28;20037;-58
2022/07/21 05:46:52;;;;;;;0.90;0.90;;;27.80;52.50;;;;;;5046065;28;20033;-56
2022/07/21 05:49:19;;;;;;;1.90;1.00;;;27.80;52.30;;;;;;5047600;28;20048;-53
2022/07/21 05:51:47;;;;;;;1.25;1.08;;;27.90;52.20;;;;;;5047388;28;20041;-57
2022/07/21 05:54:15;;;;;;;1.75;1.10;;;27.90;52.10;;;;;;5047710;28;20112;-57
2022/07/21 05:56:42;;;;;;;1.33;1.23;;;28.00;52.00;;;;;;5046691;28;20502;-57
2022/07/21 05:59:09;;;;;;;3.08;1.60;;;28.00;51.90;;;;;;5046917;28;20037;-57
2022/07/21 06:01:37;;;;;;;2.10;0.73;;;28.00;51.70;;;;;;5047494;28;20045;-57
2022/07/21 06:04:04;;;;;;;1.38;1.13;;;28.10;51.70;;;;;;5047175;28;20052;-57
2022/07/21 06:06:32;;;;;;;1.10;1.00;;;28.10;51.60;;;;;;5046739;28;20049;-58
2022/07/21 06:08:59;;;;;;;2.20;1.42;;;28.10;51.40;;;;;;5029050;28;20044;-58
2022/07/21 06:11:28;;;;;;;3.47;0.85;;;28.20;51.40;;;;;;5051205;28;20098;-56
2022/07/21 06:13:56;;;;;;;4.50;1.15;;;28.20;51.20;;;;;;5050790;28;20046;-58
2022/07/21 06:16:23;;;;;;;1.38;0.98;;;28.20;51.10;;;;;;5049199;28;20061;-58
2022/07/21 06:18:50;;;;;;;1.95;1.15;;;28.20;51.00;;;;;;5051259;28;20103;-60
2022/07/21 06:21:18;;;;;;;1.15;0.90;;;28.30;51.00;;;;;;5051010;28;20044;-58
2022/07/21 06:23:45;;;;;;;5.28;2.53;;;28.30;50.90;;;;;;5049360;28;20582;-57
2022/07/21 06:26:12;;;;;;;6.93;2.78;;;28.30;50.80;;;;;;5050889;28;20099;-59
2022/07/21 06:28:41;;;;;;;4.30;1.90;;;28.30;50.70;;;;;;5050709;28;20041;-59
2022/07/21 06:31:08;;;;;;;4.85;1.75;;;28.40;50.60;;;;;;5050662;28;20098;-58
2022/07/21 06:33:35;;;;;;;3.72;1.42;;;28.40;50.50;;;;;;5051135;28;20095;-57
2022/07/21 06:36:02;;;;;;;3.08;1.23;;;28.40;50.40;;;;;;5050935;28;20498;-57
2022/07/21 06:38:31;;;;;;;1.90;1.52;;;28.40;50.40;;;;;;5050560;28;20029;-54
2022/07/21 06:40:58;;;;;;;2.72;1.20;;;28.50;50.40;;;;;;5050814;28;20415;-57
2022/07/21 06:43:26;;;;;;;4.70;1.85;;;28.40;50.30;;;;;;5050103;28;20044;-58
2022/07/21 06:45:54;;;;;;;3.65;1.88;;;28.50;50.30;;;;;;5050536;28;20044;-58
2022/07/21 06:48:22;;;;;;;4.25;1.33;;;28.50;50.20;;;;;;5050337;28;20045;-56
2022/07/21 06:50:50;;;;;;;1.42;1.15;;;28.60;50.20;;;;;;5049311;28;20663;-55
2022/07/21 06:53:17;;;;;;;2.63;1.65;;;28.50;50.10;;;;;;5050478;28;20530;-57
2022/07/21 06:55:45;;;;;;;4.03;1.70;;;28.60;50.10;;;;;;5050335;28;20094;-57
2022/07/21 06:58:15;;;;;;;4.28;1.23;;;28.60;50.10;;;;;;5049961;28;20107;-58
2022/07/21 07:00:43;;;;;;;5.82;1.80;;;28.60;50.10;;;;;;5050346;28;20052;-58
2022/07/21 07:03:11;;;;;;;1.33;1.20;;;28.70;50.10;;;;;;5050094;28;20052;-58
2022/07/21 07:05:39;;;;;;;3.65;1.40;;;28.70;50.10;;;;;;5050019;28;20091;-58
2022/07/21 07:08:06;;;;;;;4.05;2.40;;;28.70;50.10;;;;;;5049446;28;20055;-58
2022/07/21 07:10:34;;;;;;;9.50;3.50;;;28.70;50.00;;;;;;5049609;28;20053;-55
2022/07/21 07:13:01;;;;;;;2.78;2.33;;;28.70;50.00;;;;;;5049180;28;20076;-59
2022/07/21 07:15:29;;;;;;;5.38;2.30;;;28.70;50.00;;;;;;5049565;28;20056;-58
2022/07/21 07:17:57;;;;;;;2.38;2.17;;;28.80;50.00;;;;;;5049793;28;20049;-59
2022/07/21 07:20:26;;;;;;;3.92;2.75;;;28.80;49.90;;;;;;5048121;28;20514;-58
2022/07/21 07:22:54;;;;;;;3.78;2.30;;;28.80;49.80;;;;;;5049266;28;20045;-59
2022/07/21 07:25:21;;;;;;;3.70;2.65;;;28.80;49.80;;;;;;5049434;28;20053;-59
2022/07/21 07:27:51;;;;;;;3.15;2.05;;;28.80;49.60;;;;;;5050060;28;20063;-58
2022/07/21 07:30:19;;;;;;;6.18;2.03;;;28.80;49.50;;;;;;5049795;28;20052;-59
2022/07/21 07:32:48;;;;;;;2.67;1.98;;;28.80;49.50;;;;;;5049935;28;20041;-58
2022/07/21 07:35:16;;;;;;;2.53;2.13;;;28.90;49.50;;;;;;5049782;28;20045;-58
2022/07/21 07:37:46;;;;;;;3.47;1.77;;;28.90;49.40;;;;;;5048315;28;20095;-57
2022/07/21 07:40:17;;;;;;;3.92;2.25;;;28.90;49.30;;;;;;5049316;28;20059;-58
2022/07/21 07:42:45;;;;;;;3.65;1.83;;;28.90;49.30;;;;;;5049510;28;20127;-58
2022/07/21 07:45:16;;;;;;;5.07;1.55;;;28.90;49.20;;;;;;5049391;28;20123;-58
2022/07/21 07:47:45;;;;;;;3.85;2.03;;;28.90;49.20;;;;;;5049828;28;20053;-58
2022/07/21 07:50:14;;;;;;;2.97;1.52;;;29.00;49.20;;;;;;5049444;28;20044;-58
2022/07/21 07:52:45;;;;;;;2.67;1.58;;;29.00;49.20;;;;;;5049722;28;20129;-58
2022/07/21 07:55:13;;;;;;;2.55;1.75;;;29.00;49.10;;;;;;5049018;28;20124;-58
2022/07/21 07:57:43;;;;;;;2.20;1.38;;;29.00;49.10;;;;;;5049542;28;20087;-58
2022/07/21 08:00:13;;;;;;;5.90;2.92;;;29.00;49.00;;;;;;5049164;28;20565;-58
2022/07/21 08:02:40;;;;;;;1.73;1.55;;;29.00;49.10;;;;;;5049702;28;20736;-58
2022/07/21 08:05:09;;;;;;;5.03;1.75;;;29.00;49.00;;;;;;5049452;28;20102;-58
2022/07/21 08:07:37;;;;;;;2.05;1.30;;;29.10;49.00;;;;;;5049785;28;20062;-58
2022/07/21 08:10:06;;;;;;;5.70;1.92;;;29.10;49.00;;;;;;5048954;28;20045;-59
2022/07/21 08:12:37;;;;;;;5.00;1.92;;;29.10;48.90;;;;;;5049104;28;20037;-57
2022/07/21 08:15:06;;;;;;;4.55;1.60;;;29.10;48.90;;;;;;5049453;28;20064;-58
2022/07/21 08:17:34;;;;;;;1.85;1.70;;;29.10;48.90;;;;;;5048740;28;20053;-58
2022/07/21 08:20:02;;;;;;;2.15;1.95;;;29.10;49.40;;;;;;5047313;28;20526;-58
2022/07/21 08:22:29;;;;;;;2.45;2.13;;;29.20;48.80;;;;;;5029697;28;20052;-57
2022/07/21 08:24:56;;;;;;;2.65;1.98;;;29.10;48.70;;;;;;5048247;28;20037;-57
2022/07/21 08:27:24;;;;;;;6.47;2.17;;;29.20;48.70;;;;;;5049192;28;20068;-57
2022/07/21 08:29:52;;;;;;;2.90;1.60;;;29.20;48.70;;;;;;5049112;28;20114;-57
2022/07/21 08:32:20;;;;;;;3.95;2.05;;;29.20;48.60;;;;;;5048810;28;20041;-58
2022/07/21 08:34:47;;;;;;;4.32;1.73;;;29.20;48.60;;;;;;5047737;28;20045;-59
2022/07/21 08:37:14;;;;;;;2.00;1.75;;;29.20;48.60;;;;;;5047327;28;20629;-58
2022/07/21 08:39:42;;;;;;;1.08;1.08;;;29.20;48.50;;;;;;5048516;28;20044;-58
2022/07/21 08:42:13;;;;;;;2.10;2.00;;;29.20;48.40;;;;;;5031139;28;20053;-58
2022/07/21 08:44:42;;;;;;;3.72;2.30;;;29.20;48.40;;;;;;5080692;28;20506;-58
2022/07/21 08:47:09;;;;;;;3.28;2.38;;;29.30;48.30;;;;;;5048896;28;20590;-57
2022/07/21 08:49:38;;;;;;;2.70;2.03;;;29.30;48.30;;;;;;5041233;28;20037;-57
2022/07/21 08:52:07;;;;;;;3.50;1.80;;;29.30;48.30;;;;;;5047769;28;20507;-57
2022/07/21 08:54:35;;;;;;;2.85;2.15;;;29.30;48.20;;;;;;5048283;28;20120;-58
2022/07/21 08:57:02;;;;;;;1.77;1.67;;;29.30;48.20;;;;;;5041559;28;20032;-59
2022/07/21 08:59:29;;;;;;;1.75;1.75;;;29.30;48.10;;;;;;5048171;28;20051;-58
2022/07/21 09:01:58;;;;;;;2.78;2.15;;;29.40;48.20;;;;;;5048369;28;20044;-58
2022/07/21 09:04:29;;;;;;;2.70;1.98;;;29.40;48.10;;;;;;5048116;28;20060;-58
2022/07/21 09:06:58;;;;;;;2.90;1.98;;;29.40;48.10;;;;;;5041815;28;20060;-57
2022/07/21 09:09:27;;;;;;;6.15;2.22;;;29.40;48.00;;;;;;5040672;28;20048;-58
2022/07/21 09:11:55;;;;;;;2.15;2.00;;;29.40;48.00;;;;;;5041927;28;20040;-59
2022/07/21 09:14:24;;;;;;;3.38;1.88;;;29.40;48.00;;;;;;5041707;28;20406;-59
2022/07/21 09:16:54;;;;;;;4.15;2.58;;;29.50;48.00;;;;;;5042094;28;20057;-59
2022/07/21 09:19:24;;;;;;;1.95;1.85;;;29.50;48.00;;;;;;5048236;28;20135;-59
2022/07/21 09:21:54;;;;;;;3.75;2.30;;;29.50;47.90;;;;;;5047648;28;20045;-58
2022/07/21 09:24:28;;;;;;;2.10;2.00;;;29.50;47.90;;;;;;5048196;28;20227;-59
2022/07/21 09:27:05;;;;;;;3.65;1.80;;;29.50;47.80;;;;;;5041352;28;20048;-59
2022/07/21 09:29:36;;;;;;;3.75;2.08;;;29.50;47.80;;;;;;5047855;28;20068;-59
2022/07/21 09:32:15;;;;;;;2.35;1.83;;;29.50;47.80;;;;;;5047720;28;20561;-59
2022/07/21 09:34:44;;;;;;;2.08;1.73;;;29.50;47.70;;;;;;5046853;28;20052;-59
2022/07/21 09:37:11;;;;;;;2.65;2.53;;;29.60;47.80;;;;;;5047638;28;20045;-59
2022/07/21 09:39:42;;;;;;;1.77;1.67;;;29.60;47.70;;;;;;5048029;28;20138;-58
2022/07/21 09:42:14;;;;;;;2.42;2.05;;;29.60;47.60;;;;;;5047745;28;20052;-58
2022/07/21 09:44:43;;;;;;;2.00;1.58;;;29.60;47.60;;;;;;5047108;28;20045;-59
2022/07/21 09:47:13;;;;;;;2.22;2.10;;;29.60;47.50;;;;;;5047596;28;20128;-59
2022/07/21 09:49:41;;;;;;;2.22;1.77;;;29.60;47.50;;;;;;5046156;28;20083;-60
2022/07/21 09:52:23;;;;;;;4.10;1.85;;;29.60;47.50;;;;;;5045929;28;20053;-59
2022/07/21 09:54:51;;;;;;;1.52;1.42;;;29.70;47.40;;;;;;5047447;28;20043;-59
2022/07/21 09:57:18;;;;;;;1.58;1.48;;;29.60;47.40;;;;;;5041610;28;20099;-59
2022/07/21 09:59:47;;;;;;;1.77;1.67;;;29.70;47.40;;;;;;5047817;28;20118;-59
2022/07/21 10:02:18;;;;;;;2.45;2.25;;;29.70;47.30;;;;;;5047730;28;20048;-59
2022/07/21 10:04:49;;;;;;;2.50;1.70;;;29.70;47.30;;;;;;5047456;28;20056;-59
2022/07/21 10:07:18;;;;;;;3.55;1.52;;;29.70;47.30;;;;;;5039941;28;20095;-59
2022/07/21 10:09:48;;;;;;;2.25;1.33;;;29.70;47.20;;;;;;5048085;28;20399;-59
2022/07/21 10:12:16;;;;;;;1.60;1.50;;;29.70;47.20;;;;;;5047646;28;20072;-60
2022/07/21 10:14:44;;;;;;;2.85;2.65;;;29.80;47.20;;;;;;5047504;28;20048;-59
2022/07/21 10:17:11;;;;;;;1.70;1.60;;;29.80;47.10;;;;;;5047766;28;20080;-59
2022/07/21 10:19:45;;;;;;;4.88;1.83;;;29.80;47.10;;;;;;5047282;28;20040;-59
2022/07/21 10:22:23;;;;;;;2.17;1.85;;;29.80;47.00;;;;;;5045982;28;20049;-59
2022/07/21 10:24:53;;;;;;;1.60;1.50;;;29.80;47.00;;;;;;5047779;28;20053;-59
2022/07/21 10:27:20;;;;;;;3.08;1.63;;;29.80;47.00;;;;;;5044054;28;20115;-59
2022/07/21 10:29:53;;;;;;;1.63;1.50;;;29.80;46.90;;;;;;5046087;28;20146;-59
2022/07/21 10:32:22;;;;;;;2.63;2.30;;;29.90;47.00;;;;;;5047729;28;20052;-58
2022/07/21 10:34:50;;;;;;;2.13;2.03;;;29.90;47.00;;;;;;5047400;28;20053;-59
2022/07/21 10:37:48;;;;;;;3.15;1.88;;;29.90;46.90;;;;;;5047754;28;20056;-59
2022/07/21 10:40:39;;;;;;;5.35;2.85;;;29.90;46.80;;;;;;5047500;28;20754;-59
2022/07/21 10:43:39;;;;;;;1.65;1.58;;;29.90;46.80;;;;;;5047593;28;20514;-59
2022/07/21 10:46:33;;;;;;;2.78;2.58;;;29.90;46.80;;;;;;5040844;28;20495;-59
2022/07/21 10:49:01;;;;;;;2.03;1.92;;;29.90;46.80;;;;;;5057324;28;20113;-59
2022/07/21 10:51:28;;;;;;;5.57;2.42;;;29.90;46.80;;;;;;5046179;28;20041;-59
2022/07/21 10:54:24;;;;;;;1.92;1.67;;;29.90;46.80;;;;;;5047563;28;20068;-59
2022/07/21 10:57:28;;;;;;;1.85;1.70;;;30.00;46.70;;;;;;5047710;28;20049;-59
2022/07/21 11:00:24;;;;;;;2.05;1.50;;;29.90;46.70;;;;;;5045810;28;21061;-59
2022/07/21 11:02:53;;;;;;;;;;;30.00;46.70;;;;;;5044644;28;20072;-59
2022/07/21 11:05:20;;;;;;;2.25;1.85;;;29.90;46.70;;;;;;5049597;28;19925;-59
2022/07/21 11:08:09;;;;;;;1.40;1.35;;;29.90;46.80;;;;;;5043586;28;20053;-59
2022/07/21 11:10:38;;;;;;;4.45;1.77;;;30.00;46.80;;;;;;5047560;28;20130;-59
2022/07/21 11:13:06;;;;;;;2.20;1.65;;;30.00;46.80;;;;;;5049474;28;20404;-59
2022/07/21 11:15:47;;;;;;;1.50;1.42;;;30.00;46.70;;;;;;5050622;28;20529;-59
2022/07/21 11:18:18;;;;;;;2.40;2.30;;;30.00;46.70;;;;;;5050304;28;20041;-59
2022/07/21 11:20:58;;;;;;;1.48;1.38;;;30.00;46.70;;;;;;5050539;28;20048;-59
2022/07/21 11:23:36;;;;;;;1.58;1.42;;;30.10;46.70;;;;;;5049197;28;20048;-60
2022/07/21 11:26:03;;;;;;;1.60;1.35;;;30.10;46.60;;;;;;5048619;28;20045;-60
2022/07/21 11:28:32;;;;;;;2.45;1.95;;;30.10;46.60;;;;;;5050148;28;20045;-60
2022/07/21 11:31:20;;;;;;;1.17;1.08;;;30.10;46.60;;;;;;5050469;28;20486;-59
2022/07/21 11:33:48;;;;;;;2.95;1.00;;;30.20;46.60;;;;;;5050149;28;20041;-59
2022/07/21 11:36:27;;;;;;;2.22;1.50;;;30.10;46.60;;;;;;5050318;28;20045;-59
2022/07/21 11:39:06;;;;;;;2.83;1.55;;;30.20;46.60;;;;;;5050429;28;20047;-59
2022/07/21 11:41:35;;;;;;;1.88;1.35;;;30.20;46.60;;;;;;5044534;28;20052;-59
2022/07/21 11:44:04;;;;;;;2.28;1.50;;;30.20;46.60;;;;;;5050013;28;20040;-59
2022/07/21 11:46:46;;;;;;;2.90;1.52;;;30.30;46.60;;;;;;5049898;28;20053;-58
2022/07/21 11:49:13;;;;;;;2.20;1.63;;;30.30;46.60;;;;;;5050236;28;20045;-59
2022/07/21 11:51:47;;;;;;;1.95;1.23;;;30.30;46.60;;;;;;5048500;28;20045;-58
2022/07/21 11:54:22;;;;;;;3.42;1.55;;;30.30;46.60;;;;;;5043315;28;20037;-59
2022/07/21 11:56:51;;;;;;;0.77;0.77;;;30.40;46.50;;;;;;5049892;28;20053;-60
2022/07/21 11:59:19;;;;;;;1.13;1.13;;;30.40;46.50;;;;;;5048774;28;20041;-59
2022/07/21 12:01:51;;;;;;;1.33;1.15;;;30.40;46.40;;;;;;5049306;28;20053;-60
2022/07/21 12:04:40;;;;;;;1.65;1.55;;;30.40;46.30;;;;;;5049806;28;20049;-60
2022/07/21 12:07:16;;;;;;;2.30;1.60;;;30.40;46.30;;;;;;5029980;28;20055;-59
2022/07/21 12:09:45;;;;;;;0.80;0.80;;;30.50;46.40;;;;;;5050063;28;20624;-59
2022/07/21 12:12:13;;;;;;;1.67;1.05;;;30.40;46.30;;;;;;5049852;28;20674;-59
2022/07/21 12:14:47;;;;;;;1.90;1.63;;;30.50;46.30;;;;;;5049371;28;20533;-59
2022/07/21 12:17:15;;;;;;;1.75;1.63;;;30.50;46.20;;;;;;5049339;28;20068;-59
2022/07/21 12:19:43;;;;;;;0.95;0.95;;;30.50;46.20;;;;;;5049738;28;20033;-59
2022/07/21 12:22:10;;;;;;;2.30;0.88;;;30.50;46.70;;;;;;5049392;28;20044;-59
2022/07/21 12:24:52;;;;;;;1.42;1.17;;;30.60;46.20;;;;;;5049635;28;20095;-59
2022/07/21 12:27:19;;;;;;;2.00;1.13;;;30.60;46.10;;;;;;5049451;28;20043;-58
2022/07/21 12:29:48;;;;;;;3.50;1.45;;;30.60;46.10;;;;;;5048870;28;20083;-58
2022/07/21 12:32:36;;;;;;;1.30;1.20;;;30.70;46.10;;;;;;5042598;28;20111;-59
2022/07/21 12:35:03;;;;;;;2.50;2.30;;;30.70;46.10;;;;;;5040700;28;20420;-59
2022/07/21 12:37:56;;;;;;;1.40;0.82;;;30.70;45.90;;;;;;5049319;28;20098;-59
2022/07/21 12:40:23;;;;;;;0.70;0.63;;;30.70;45.90;;;;;;5048156;28;20424;-59
2022/07/21 12:42:50;;;;;;;1.52;1.20;;;30.70;45.90;;;;;;5049060;28;20844;-59
2022/07/21 12:45:21;;;;;;;1.83;1.77;;;30.70;45.80;;;;;;5048767;28;20076;-59
2022/07/21 12:48:06;;;;;;;1.40;1.30;;;30.80;45.80;;;;;;5049259;28;20045;-59
2022/07/21 12:50:33;;;;;;;1.33;1.20;;;30.80;45.70;;;;;;5042701;28;20418;-59
2022/07/21 12:53:01;;;;;;;1.42;1.30;;;30.80;45.70;;;;;;5049353;28;20040;-64
2022/07/21 12:55:28;;;;;;;1.10;1.05;;;30.80;45.70;;;;;;5049077;28;20064;-59
2022/07/21 12:57:56;;;;;;;1.83;1.55;;;30.90;45.60;;;;;;5042198;28;20041;-59
2022/07/21 13:00:24;;;;;;;1.20;1.15;;;30.90;45.60;;;;;;5048309;28;20049;-59
2022/07/21 13:02:55;;;;;;;0.60;0.60;;;30.90;45.50;;;;;;5048537;28;20091;-59